sensor_id;sensor_type;location;lat;lon;timestamp;temperature;humidity
47162;DHT22;32921;53.256;8.198;2023-04-25T00:02:20;6.00;99.90
47162;DHT22;32921;53.256;8.198;2023-04-25T00:04:46;6.00;99.90
47162;DHT22;32921;53.256;8.198;2023-04-25T00:07:14;5.90;99.90
47162;DHT22;32921;53.256;8.198;2023-04-25T00:09:39;5.90;99.90
47162;DHT22;32921;53.256;8.198;2023-04-25T00:12:05;5.90;99.90
47162;DHT22;32921;53.256;8.198;2023-04-25T00:14:31;5.90;99.90
47162;DHT22;32921;53.256;8.198;2023-04-25T00:16:59;5.90;99.90
47162;DHT22;32921;53.256;8.198;2023-04-25T00:19:25;5.90;99.90
47162;DHT22;32921;53.256;8.198;2023-04-25T00:21:56;5.90;99.90
47162;DHT22;32921;53.256;8.198;2023-04-25T00:24:22;5.90;99.90
47162;DHT22;32921;53.256;8.198;2023-04-25T00:26:47;5.90;99.90
47162;DHT22;32921;53.256;8.198;2023-04-25T00:29:13;5.90;99.90
47162;DHT22;32921;53.256;8.198;2023-04-25T00:31:38;5.90;99.90
47162;DHT22;32921;53.256;8.198;2023-04-25T00:34:05;5.90;99.90
47162;DHT22;32921;53.256;8.198;2023-04-25T00:36:31;5.80;99.90
47162;DHT22;32921;53.256;8.198;2023-04-25T00:38:56;5.80;99.90
47162;DHT22;32921;53.256;8.198;2023-04-25T00:41:22;5.70;99.90
47162;DHT22;32921;53.256;8.198;2023-04-25T00:43:48;5.70;99.90
47162;DHT22;32921;53.256;8.198;2023-04-25T00:46:14;5.70;99.90
47162;DHT22;32921;53.256;8.198;2023-04-25T00:48:40;5.60;99.90
47162;DHT22;32921;53.256;8.198;2023-04-25T00:51:06;5.50;99.90
47162;DHT22;32921;53.256;8.198;2023-04-25T00:53:32;5.40;99.90
47162;DHT22;32921;53.256;8.198;2023-04-25T00:55:58;5.30;99.90
47162;DHT22;32921;53.256;8.198;2023-04-25T00:58:24;5.20;99.90
47162;DHT22;32921;53.256;8.198;2023-04-25T01:00:51;5.20;99.90
47162;DHT22;32921;53.256;8.198;2023-04-25T01:03:19;5.10;99.90
47162;DHT22;32921;53.256;8.198;2023-04-25T01:05:45;5.10;99.90
47162;DHT22;32921;53.256;8.198;2023-04-25T01:08:12;5.00;99.90
47162;DHT22;32921;53.256;8.198;2023-04-25T01:10:38;4.80;99.90
47162;DHT22;32921;53.256;8.198;2023-04-25T01:13:04;4.70;99.90
47162;DHT22;32921;53.256;8.198;2023-04-25T01:15:30;4.60;99.90
47162;DHT22;32921;53.256;8.198;2023-04-25T01:17:56;4.50;99.90
47162;DHT22;32921;53.256;8.198;2023-04-25T01:20:22;4.40;99.90
47162;DHT22;32921;53.256;8.198;2023-04-25T01:22:49;4.40;99.90
47162;DHT22;32921;53.256;8.198;2023-04-25T01:25:15;4.30;99.90
47162;DHT22;32921;53.256;8.198;2023-04-25T01:27:41;4.30;99.90
47162;DHT22;32921;53.256;8.198;2023-04-25T01:30:07;4.10;99.90
47162;DHT22;32921;53.256;8.198;2023-04-25T01:32:33;4.10;99.90
47162;DHT22;32921;53.256;8.198;2023-04-25T01:35:10;4.00;99.90
47162;DHT22;32921;53.256;8.198;2023-04-25T01:37:37;3.80;99.90
47162;DHT22;32921;53.256;8.198;2023-04-25T01:40:04;3.80;99.90
47162;DHT22;32921;53.256;8.198;2023-04-25T01:42:34;3.80;99.90
47162;DHT22;32921;53.256;8.198;2023-04-25T01:45:00;3.70;99.90
47162;DHT22;32921;53.256;8.198;2023-04-25T01:47:26;3.50;99.90
47162;DHT22;32921;53.256;8.198;2023-04-25T01:49:52;3.50;99.90
47162;DHT22;32921;53.256;8.198;2023-04-25T01:52:17;3.50;99.90
47162;DHT22;32921;53.256;8.198;2023-04-25T01:54:43;3.50;99.90
47162;DHT22;32921;53.256;8.198;2023-04-25T01:57:13;3.50;99.90
47162;DHT22;32921;53.256;8.198;2023-04-25T01:59:39;3.50;99.90
47162;DHT22;32921;53.256;8.198;2023-04-25T02:02:06;3.50;99.90
47162;DHT22;32921;53.256;8.198;2023-04-25T02:04:32;3.50;99.90
47162;DHT22;32921;53.256;8.198;2023-04-25T02:07:01;3.50;99.90
47162;DHT22;32921;53.256;8.198;2023-04-25T02:09:26;3.60;99.90
47162;DHT22;32921;53.256;8.198;2023-04-25T02:11:52;3.80;99.90
47162;DHT22;32921;53.256;8.198;2023-04-25T02:14:18;4.00;99.90
47162;DHT22;32921;53.256;8.198;2023-04-25T02:16:44;4.00;99.90
47162;DHT22;32921;53.256;8.198;2023-04-25T02:19:10;4.10;99.90
47162;DHT22;32921;53.256;8.198;2023-04-25T02:21:36;4.20;99.90
47162;DHT22;32921;53.256;8.198;2023-04-25T02:24:02;4.20;99.90
47162;DHT22;32921;53.256;8.198;2023-04-25T02:26:28;4.30;99.90
47162;DHT22;32921;53.256;8.198;2023-04-25T02:28:53;4.30;99.90
47162;DHT22;32921;53.256;8.198;2023-04-25T02:31:19;4.40;99.90
47162;DHT22;32921;53.256;8.198;2023-04-25T02:33:44;4.50;99.90
47162;DHT22;32921;53.256;8.198;2023-04-25T02:36:10;4.50;99.90
47162;DHT22;32921;53.256;8.198;2023-04-25T02:38:36;4.50;99.90
47162;DHT22;32921;53.256;8.198;2023-04-25T02:41:01;4.50;99.90
47162;DHT22;32921;53.256;8.198;2023-04-25T02:43:27;4.40;99.90
47162;DHT22;32921;53.256;8.198;2023-04-25T02:45:52;4.30;99.90
47162;DHT22;32921;53.256;8.198;2023-04-25T02:48:18;4.20;99.90
47162;DHT22;32921;53.256;8.198;2023-04-25T02:50:43;4.20;99.90
47162;DHT22;32921;53.256;8.198;2023-04-25T02:53:10;4.30;99.90
47162;DHT22;32921;53.256;8.198;2023-04-25T02:55:35;4.40;99.90
47162;DHT22;32921;53.256;8.198;2023-04-25T02:58:01;4.50;99.90
47162;DHT22;32921;53.256;8.198;2023-04-25T03:00:26;4.50;99.90
47162;DHT22;32921;53.256;8.198;2023-04-25T03:02:52;4.50;99.90
47162;DHT22;32921;53.256;8.198;2023-04-25T03:05:18;4.50;99.90
47162;DHT22;32921;53.256;8.198;2023-04-25T03:07:44;4.50;99.90
47162;DHT22;32921;53.256;8.198;2023-04-25T03:10:10;4.40;99.90
47162;DHT22;32921;53.256;8.198;2023-04-25T03:12:36;4.30;99.90
47162;DHT22;32921;53.256;8.198;2023-04-25T03:15:02;4.30;99.90
47162;DHT22;32921;53.256;8.198;2023-04-25T03:17:28;4.30;99.90
47162;DHT22;32921;53.256;8.198;2023-04-25T03:19:54;4.30;99.90
47162;DHT22;32921;53.256;8.198;2023-04-25T03:22:21;4.30;99.90
47162;DHT22;32921;53.256;8.198;2023-04-25T03:24:46;4.30;99.90
47162;DHT22;32921;53.256;8.198;2023-04-25T03:27:12;4.20;99.90
47162;DHT22;32921;53.256;8.198;2023-04-25T03:29:38;4.20;99.90
47162;DHT22;32921;53.256;8.198;2023-04-25T03:32:03;4.20;99.90
47162;DHT22;32921;53.256;8.198;2023-04-25T03:34:29;4.20;99.90
47162;DHT22;32921;53.256;8.198;2023-04-25T03:36:55;4.20;99.90
47162;DHT22;32921;53.256;8.198;2023-04-25T03:39:20;4.30;99.90
47162;DHT22;32921;53.256;8.198;2023-04-25T03:41:46;4.30;99.90
47162;DHT22;32921;53.256;8.198;2023-04-25T03:44:12;4.40;99.90
47162;DHT22;32921;53.256;8.198;2023-04-25T03:46:37;4.40;99.90
47162;DHT22;32921;53.256;8.198;2023-04-25T03:49:03;4.40;99.90
47162;DHT22;32921;53.256;8.198;2023-04-25T03:51:28;4.50;99.90
47162;DHT22;32921;53.256;8.198;2023-04-25T03:53:54;4.50;99.90
47162;DHT22;32921;53.256;8.198;2023-04-25T03:56:20;4.60;99.90
47162;DHT22;32921;53.256;8.198;2023-04-25T03:58:46;4.60;99.90
47162;DHT22;32921;53.256;8.198;2023-04-25T04:01:11;4.70;99.90
47162;DHT22;32921;53.256;8.198;2023-04-25T04:03:37;4.70;99.90
47162;DHT22;32921;53.256;8.198;2023-04-25T04:06:06;4.70;99.90
47162;DHT22;32921;53.256;8.198;2023-04-25T04:08:33;4.70;99.90
47162;DHT22;32921;53.256;8.198;2023-04-25T04:10:59;4.70;99.90
47162;DHT22;32921;53.256;8.198;2023-04-25T04:13:28;4.70;99.90
47162;DHT22;32921;53.256;8.198;2023-04-25T04:15:54;4.60;99.90
47162;DHT22;32921;53.256;8.198;2023-04-25T04:18:21;4.70;99.90
47162;DHT22;32921;53.256;8.198;2023-04-25T04:20:46;4.60;99.90
47162;DHT22;32921;53.256;8.198;2023-04-25T04:23:12;4.60;99.90
47162;DHT22;32921;53.256;8.198;2023-04-25T04:25:38;4.60;99.90
47162;DHT22;32921;53.256;8.198;2023-04-25T04:28:05;4.70;99.90
47162;DHT22;32921;53.256;8.198;2023-04-25T04:30:31;4.70;99.90
47162;DHT22;32921;53.256;8.198;2023-04-25T04:32:58;4.70;99.90
47162;DHT22;32921;53.256;8.198;2023-04-25T04:35:24;4.70;99.90
47162;DHT22;32921;53.256;8.198;2023-04-25T04:37:50;4.70;99.90
47162;DHT22;32921;53.256;8.198;2023-04-25T04:40:17;4.60;99.90
47162;DHT22;32921;53.256;8.198;2023-04-25T04:42:44;4.70;99.90
47162;DHT22;32921;53.256;8.198;2023-04-25T04:45:11;4.60;99.90
47162;DHT22;32921;53.256;8.198;2023-04-25T04:47:37;4.60;99.90
47162;DHT22;32921;53.256;8.198;2023-04-25T04:50:08;4.50;99.90
47162;DHT22;32921;53.256;8.198;2023-04-25T04:52:35;4.40;99.90
47162;DHT22;32921;53.256;8.198;2023-04-25T04:55:02;4.30;99.90
47162;DHT22;32921;53.256;8.198;2023-04-25T04:57:28;4.20;99.90
47162;DHT22;32921;53.256;8.198;2023-04-25T04:59:54;4.00;99.90
47162;DHT22;32921;53.256;8.198;2023-04-25T05:02:20;3.90;99.90
47162;DHT22;32921;53.256;8.198;2023-04-25T05:04:45;3.90;99.90
47162;DHT22;32921;53.256;8.198;2023-04-25T05:07:11;3.80;99.90
47162;DHT22;32921;53.256;8.198;2023-04-25T05:09:37;3.80;99.90
47162;DHT22;32921;53.256;8.198;2023-04-25T05:12:02;3.70;99.90
47162;DHT22;32921;53.256;8.198;2023-04-25T05:14:28;3.80;99.90
47162;DHT22;32921;53.256;8.198;2023-04-25T05:16:53;3.80;99.90
47162;DHT22;32921;53.256;8.198;2023-04-25T05:19:19;3.90;99.90
47162;DHT22;32921;53.256;8.198;2023-04-25T05:21:45;3.90;99.90
47162;DHT22;32921;53.256;8.198;2023-04-25T05:24:10;3.90;99.90
47162;DHT22;32921;53.256;8.198;2023-04-25T05:26:37;4.00;99.90
47162;DHT22;32921;53.256;8.198;2023-04-25T05:29:02;4.10;99.90
47162;DHT22;32921;53.256;8.198;2023-04-25T05:31:28;4.20;99.90
47162;DHT22;32921;53.256;8.198;2023-04-25T05:33:53;4.40;99.90
47162;DHT22;32921;53.256;8.198;2023-04-25T05:36:19;4.40;99.90
47162;DHT22;32921;53.256;8.198;2023-04-25T05:38:45;4.40;99.90
47162;DHT22;32921;53.256;8.198;2023-04-25T05:41:10;4.40;99.90
47162;DHT22;32921;53.256;8.198;2023-04-25T05:43:36;4.60;99.90
47162;DHT22;32921;53.256;8.198;2023-04-25T05:46:01;5.00;99.90
47162;DHT22;32921;53.256;8.198;2023-04-25T05:48:27;5.50;99.90
47162;DHT22;32921;53.256;8.198;2023-04-25T05:50:53;5.80;99.90
47162;DHT22;32921;53.256;8.198;2023-04-25T05:53:19;6.20;99.90
47162;DHT22;32921;53.256;8.198;2023-04-25T05:55:46;6.40;99.90
47162;DHT22;32921;53.256;8.198;2023-04-25T05:58:12;6.60;99.90
47162;DHT22;32921;53.256;8.198;2023-04-25T06:00:37;6.60;99.90
47162;DHT22;32921;53.256;8.198;2023-04-25T06:03:03;6.70;99.90
47162;DHT22;32921;53.256;8.198;2023-04-25T06:05:29;7.00;99.90
47162;DHT22;32921;53.256;8.198;2023-04-25T06:07:55;7.20;99.90
47162;DHT22;32921;53.256;8.198;2023-04-25T06:10:21;7.30;99.90
47162;DHT22;32921;53.256;8.198;2023-04-25T06:12:47;7.30;97.80
47162;DHT22;32921;53.256;8.198;2023-04-25T06:15:13;7.30;97.60
47162;DHT22;32921;53.256;8.198;2023-04-25T06:17:39;7.20;95.90
47162;DHT22;32921;53.256;8.198;2023-04-25T06:20:05;7.20;95.80
47162;DHT22;32921;53.256;8.198;2023-04-25T06:22:31;7.20;95.10
47162;DHT22;32921;53.256;8.198;2023-04-25T06:24:56;7.10;94.50
47162;DHT22;32921;53.256;8.198;2023-04-25T06:27:24;7.00;94.40
47162;DHT22;32921;53.256;8.198;2023-04-25T06:29:49;6.90;94.20
47162;DHT22;32921;53.256;8.198;2023-04-25T06:32:15;6.80;94.70
47162;DHT22;32921;53.256;8.198;2023-04-25T06:34:40;6.60;94.80
47162;DHT22;32921;53.256;8.198;2023-04-25T06:37:06;6.60;94.80
47162;DHT22;32921;53.256;8.198;2023-04-25T06:39:31;7.00;96.00
47162;DHT22;32921;53.256;8.198;2023-04-25T06:41:57;7.10;94.80
47162;DHT22;32921;53.256;8.198;2023-04-25T06:44:23;7.10;94.10
47162;DHT22;32921;53.256;8.198;2023-04-25T06:46:49;7.30;94.20
47162;DHT22;32921;53.256;8.198;2023-04-25T06:49:15;7.90;93.60
47162;DHT22;32921;53.256;8.198;2023-04-25T06:51:41;8.30;92.50
47162;DHT22;32921;53.256;8.198;2023-04-25T06:54:06;8.90;90.80
47162;DHT22;32921;53.256;8.198;2023-04-25T06:56:32;9.10;86.80
47162;DHT22;32921;53.256;8.198;2023-04-25T06:58:58;9.30;86.80
47162;DHT22;32921;53.256;8.198;2023-04-25T07:01:25;9.70;84.90
47162;DHT22;32921;53.256;8.198;2023-04-25T07:03:51;10.30;83.10
47162;DHT22;32921;53.256;8.198;2023-04-25T07:06:16;10.70;81.90
47162;DHT22;32921;53.256;8.198;2023-04-25T07:08:42;10.30;81.00
47162;DHT22;32921;53.256;8.198;2023-04-25T07:11:08;10.50;81.80
47162;DHT22;32921;53.256;8.198;2023-04-25T07:13:33;10.30;81.40
47162;DHT22;32921;53.256;8.198;2023-04-25T07:15:59;10.40;75.90
47162;DHT22;32921;53.256;8.198;2023-04-25T07:18:25;10.40;79.20
47162;DHT22;32921;53.256;8.198;2023-04-25T07:20:50;11.00;74.70
47162;DHT22;32921;53.256;8.198;2023-04-25T07:23:16;10.40;71.20
47162;DHT22;32921;53.256;8.198;2023-04-25T07:25:42;9.90;75.30
47162;DHT22;32921;53.256;8.198;2023-04-25T07:28:07;9.60;75.20
47162;DHT22;32921;53.256;8.198;2023-04-25T07:30:33;9.10;73.30
47162;DHT22;32921;53.256;8.198;2023-04-25T07:33:00;9.00;74.40
47162;DHT22;32921;53.256;8.198;2023-04-25T07:35:25;8.60;76.80
47162;DHT22;32921;53.256;8.198;2023-04-25T07:37:51;8.20;79.90
47162;DHT22;32921;53.256;8.198;2023-04-25T07:40:17;7.60;82.20
47162;DHT22;32921;53.256;8.198;2023-04-25T07:42:42;6.80;90.60
47162;DHT22;32921;53.256;8.198;2023-04-25T07:45:08;6.10;92.20
47162;DHT22;32921;53.256;8.198;2023-04-25T07:47:34;5.70;93.20
47162;DHT22;32921;53.256;8.198;2023-04-25T07:50:00;5.70;94.70
47162;DHT22;32921;53.256;8.198;2023-04-25T07:52:26;5.70;95.00
47162;DHT22;32921;53.256;8.198;2023-04-25T07:54:51;5.90;95.50
47162;DHT22;32921;53.256;8.198;2023-04-25T07:57:17;6.20;95.40
47162;DHT22;32921;53.256;8.198;2023-04-25T07:59:43;6.50;94.30
47162;DHT22;32921;53.256;8.198;2023-04-25T08:02:09;6.80;93.50
47162;DHT22;32921;53.256;8.198;2023-04-25T08:04:35;7.30;92.90
47162;DHT22;32921;53.256;8.198;2023-04-25T08:07:00;7.60;91.90
47162;DHT22;32921;53.256;8.198;2023-04-25T08:09:26;8.10;91.80
47162;DHT22;32921;53.256;8.198;2023-04-25T08:11:52;8.30;91.00
47162;DHT22;32921;53.256;8.198;2023-04-25T08:14:17;8.40;91.20
47162;DHT22;32921;53.256;8.198;2023-04-25T08:16:43;8.70;90.60
47162;DHT22;32921;53.256;8.198;2023-04-25T08:19:09;9.60;87.50
47162;DHT22;32921;53.256;8.198;2023-04-25T08:21:36;10.70;85.50
47162;DHT22;32921;53.256;8.198;2023-04-25T08:24:01;11.40;80.50
47162;DHT22;32921;53.256;8.198;2023-04-25T08:26:28;10.50;79.20
47162;DHT22;32921;53.256;8.198;2023-04-25T08:28:54;10.30;81.00
47162;DHT22;32921;53.256;8.198;2023-04-25T08:31:20;10.10;81.70
47162;DHT22;32921;53.256;8.198;2023-04-25T08:33:46;10.00;79.20
47162;DHT22;32921;53.256;8.198;2023-04-25T08:36:11;9.40;76.30
47162;DHT22;32921;53.256;8.198;2023-04-25T08:38:37;9.10;76.60
47162;DHT22;32921;53.256;8.198;2023-04-25T08:41:03;8.70;80.50
47162;DHT22;32921;53.256;8.198;2023-04-25T08:43:29;8.20;81.40
47162;DHT22;32921;53.256;8.198;2023-04-25T08:46:00;8.20;83.60
47162;DHT22;32921;53.256;8.198;2023-04-25T08:48:27;8.40;83.70
47162;DHT22;32921;53.256;8.198;2023-04-25T08:50:56;9.20;82.90
47162;DHT22;32921;53.256;8.198;2023-04-25T08:53:27;10.30;85.30
47162;DHT22;32921;53.256;8.198;2023-04-25T08:55:57;10.40;76.90
47162;DHT22;32921;53.256;8.198;2023-04-25T08:58:23;11.30;79.00
47162;DHT22;32921;53.256;8.198;2023-04-25T09:00:50;11.60;74.00
47162;DHT22;32921;53.256;8.198;2023-04-25T09:03:17;11.40;73.90
47162;DHT22;32921;53.256;8.198;2023-04-25T09:05:43;11.00;75.20
47162;DHT22;32921;53.256;8.198;2023-04-25T09:08:08;11.70;74.50
47162;DHT22;32921;53.256;8.198;2023-04-25T09:10:35;12.10;71.30
47162;DHT22;32921;53.256;8.198;2023-04-25T09:13:08;12.20;69.70
47162;DHT22;32921;53.256;8.198;2023-04-25T09:15:54;11.50;69.10
47162;DHT22;32921;53.256;8.198;2023-04-25T09:18:30;11.80;71.70
47162;DHT22;32921;53.256;8.198;2023-04-25T09:21:05;11.80;72.70
47162;DHT22;32921;53.256;8.198;2023-04-25T09:23:31;11.50;70.30
47162;DHT22;32921;53.256;8.198;2023-04-25T09:26:03;10.50;67.70
47162;DHT22;32921;53.256;8.198;2023-04-25T09:28:31;9.80;64.00
47162;DHT22;32921;53.256;8.198;2023-04-25T09:30:57;9.60;66.30
47162;DHT22;32921;53.256;8.198;2023-04-25T09:33:31;9.80;70.40
47162;DHT22;32921;53.256;8.198;2023-04-25T09:36:05;10.20;73.50
47162;DHT22;32921;53.256;8.198;2023-04-25T09:38:32;9.20;77.10
47162;DHT22;32921;53.256;8.198;2023-04-25T09:41:05;8.80;81.00
47162;DHT22;32921;53.256;8.198;2023-04-25T09:43:31;8.50;83.30
47162;DHT22;32921;53.256;8.198;2023-04-25T09:45:56;8.50;84.80
47162;DHT22;32921;53.256;8.198;2023-04-25T09:48:25;8.70;86.00
47162;DHT22;32921;53.256;8.198;2023-04-25T09:53:29;10.00;81.40
47162;DHT22;32921;53.256;8.198;2023-04-25T09:55:55;10.10;77.50
47162;DHT22;32921;53.256;8.198;2023-04-25T09:58:24;10.00;77.70
47162;DHT22;32921;53.256;8.198;2023-04-25T10:00:51;10.20;77.90
47162;DHT22;32921;53.256;8.198;2023-04-25T10:03:18;10.20;75.40
47162;DHT22;32921;53.256;8.198;2023-04-25T10:05:47;10.60;75.70
47162;DHT22;32921;53.256;8.198;2023-04-25T10:08:15;10.80;74.70
47162;DHT22;32921;53.256;8.198;2023-04-25T10:10:42;10.80;72.40
47162;DHT22;32921;53.256;8.198;2023-04-25T10:13:08;10.90;70.30
47162;DHT22;32921;53.256;8.198;2023-04-25T10:15:35;11.00;72.30
47162;DHT22;32921;53.256;8.198;2023-04-25T10:18:01;11.40;73.20
47162;DHT22;32921;53.256;8.198;2023-04-25T10:20:28;11.70;71.20
47162;DHT22;32921;53.256;8.198;2023-04-25T10:22:56;12.00;67.90
47162;DHT22;32921;53.256;8.198;2023-04-25T10:25:23;12.10;68.10
47162;DHT22;32921;53.256;8.198;2023-04-25T10:27:53;13.10;67.50
47162;DHT22;32921;53.256;8.198;2023-04-25T10:30:19;14.30;62.60
47162;DHT22;32921;53.256;8.198;2023-04-25T10:32:45;14.10;62.10
47162;DHT22;32921;53.256;8.198;2023-04-25T10:35:17;13.30;63.50
47162;DHT22;32921;53.256;8.198;2023-04-25T10:38:11;12.20;65.10
47162;DHT22;32921;53.256;8.198;2023-04-25T10:40:39;11.00;70.10
47162;DHT22;32921;53.256;8.198;2023-04-25T10:43:33;9.30;78.80
47162;DHT22;32921;53.256;8.198;2023-04-25T10:46:00;7.70;85.60
47162;DHT22;32921;53.256;8.198;2023-04-25T10:48:26;7.20;91.30
47162;DHT22;32921;53.256;8.198;2023-04-25T10:54:02;7.10;92.70
47162;DHT22;32921;53.256;8.198;2023-04-25T10:56:37;7.40;91.30
47162;DHT22;32921;53.256;8.198;2023-04-25T10:59:15;7.70;91.60
47162;DHT22;32921;53.256;8.198;2023-04-25T11:01:51;7.80;86.80
47162;DHT22;32921;53.256;8.198;2023-04-25T11:09:28;8.70;85.40
47162;DHT22;32921;53.256;8.198;2023-04-25T11:11:57;10.00;76.00
47162;DHT22;32921;53.256;8.198;2023-04-25T11:14:24;11.10;75.00
47162;DHT22;32921;53.256;8.198;2023-04-25T11:16:54;12.00;69.40
47162;DHT22;32921;53.256;8.198;2023-04-25T11:19:21;12.30;70.20
47162;DHT22;32921;53.256;8.198;2023-04-25T11:21:47;11.20;73.30
47162;DHT22;32921;53.256;8.198;2023-04-25T11:24:12;9.00;81.50
47162;DHT22;32921;53.256;8.198;2023-04-25T11:26:40;7.90;89.40
47162;DHT22;32921;53.256;8.198;2023-04-25T11:29:06;7.40;91.50
47162;DHT22;32921;53.256;8.198;2023-04-25T11:31:32;7.20;92.30
47162;DHT22;32921;53.256;8.198;2023-04-25T11:33:57;7.50;91.90
47162;DHT22;32921;53.256;8.198;2023-04-25T11:36:24;7.80;90.50
47162;DHT22;32921;53.256;8.198;2023-04-25T11:38:53;8.10;88.90
47162;DHT22;32921;53.256;8.198;2023-04-25T11:41:22;8.60;90.00
47162;DHT22;32921;53.256;8.198;2023-04-25T11:43:48;9.40;87.50
47162;DHT22;32921;53.256;8.198;2023-04-25T11:46:15;10.60;80.20
47162;DHT22;32921;53.256;8.198;2023-04-25T11:48:41;11.30;75.70
47162;DHT22;32921;53.256;8.198;2023-04-25T11:51:07;11.70;72.60
47162;DHT22;32921;53.256;8.198;2023-04-25T11:53:34;11.60;71.80
47162;DHT22;32921;53.256;8.198;2023-04-25T11:55:59;11.60;71.50
47162;DHT22;32921;53.256;8.198;2023-04-25T11:58:26;12.40;70.30
47162;DHT22;32921;53.256;8.198;2023-04-25T12:00:52;13.40;65.00
47162;DHT22;32921;53.256;8.198;2023-04-25T12:03:18;12.80;62.90
47162;DHT22;32921;53.256;8.198;2023-04-25T12:05:44;12.10;66.50
47162;DHT22;32921;53.256;8.198;2023-04-25T12:08:13;11.40;67.30
47162;DHT22;32921;53.256;8.198;2023-04-25T12:10:41;10.90;66.00
47162;DHT22;32921;53.256;8.198;2023-04-25T12:13:21;10.50;64.60
47162;DHT22;32921;53.256;8.198;2023-04-25T12:15:47;10.50;65.70
47162;DHT22;32921;53.256;8.198;2023-04-25T12:18:12;12.20;65.70
47162;DHT22;32921;53.256;8.198;2023-04-25T12:20:38;12.70;62.80
47162;DHT22;32921;53.256;8.198;2023-04-25T12:23:06;13.20;63.00
47162;DHT22;32921;53.256;8.198;2023-04-25T12:25:43;13.00;60.80
47162;DHT22;32921;53.256;8.198;2023-04-25T12:30:55;11.50;55.80
47162;DHT22;32921;53.256;8.198;2023-04-25T12:33:22;10.70;62.20
47162;DHT22;32921;53.256;8.198;2023-04-25T12:35:48;10.70;63.40
47162;DHT22;32921;53.256;8.198;2023-04-25T12:38:27;11.10;60.40
47162;DHT22;32921;53.256;8.198;2023-04-25T12:40:53;11.40;58.30
47162;DHT22;32921;53.256;8.198;2023-04-25T12:43:19;11.40;59.20
47162;DHT22;32921;53.256;8.198;2023-04-25T12:45:53;11.40;62.10
47162;DHT22;32921;53.256;8.198;2023-04-25T12:48:19;12.20;60.70
47162;DHT22;32921;53.256;8.198;2023-04-25T12:50:46;12.80;58.20
47162;DHT22;32921;53.256;8.198;2023-04-25T12:53:15;13.40;48.10
47162;DHT22;32921;53.256;8.198;2023-04-25T12:55:40;13.50;48.90
47162;DHT22;32921;53.256;8.198;2023-04-25T12:58:06;14.00;49.20
47162;DHT22;32921;53.256;8.198;2023-04-25T13:00:32;14.30;50.20
47162;DHT22;32921;53.256;8.198;2023-04-25T13:02:57;15.40;46.80
47162;DHT22;32921;53.256;8.198;2023-04-25T13:05:23;15.60;47.40
47162;DHT22;32921;53.256;8.198;2023-04-25T13:07:49;15.40;48.80
47162;DHT22;32921;53.256;8.198;2023-04-25T13:10:14;14.90;47.10
47162;DHT22;32921;53.256;8.198;2023-04-25T13:12:40;13.80;48.60
47162;DHT22;32921;53.256;8.198;2023-04-25T13:15:06;13.70;50.50
47162;DHT22;32921;53.256;8.198;2023-04-25T13:17:34;13.70;51.80
47162;DHT22;32921;53.256;8.198;2023-04-25T13:20:00;15.00;49.10
47162;DHT22;32921;53.256;8.198;2023-04-25T13:22:25;15.20;47.20
47162;DHT22;32921;53.256;8.198;2023-04-25T13:24:51;14.60;47.40
47162;DHT22;32921;53.256;8.198;2023-04-25T13:27:16;12.80;52.10
47162;DHT22;32921;53.256;8.198;2023-04-25T13:29:42;11.40;55.70
47162;DHT22;32921;53.256;8.198;2023-04-25T13:32:09;10.90;58.20
47162;DHT22;32921;53.256;8.198;2023-04-25T13:34:34;10.40;61.60
47162;DHT22;32921;53.256;8.198;2023-04-25T13:37:00;10.10;61.90
47162;DHT22;32921;53.256;8.198;2023-04-25T13:39:26;10.10;63.60
47162;DHT22;32921;53.256;8.198;2023-04-25T13:41:51;9.50;67.30
47162;DHT22;32921;53.256;8.198;2023-04-25T13:44:17;8.40;76.70
47162;DHT22;32921;53.256;8.198;2023-04-25T13:46:42;7.50;83.30
47162;DHT22;32921;53.256;8.198;2023-04-25T13:49:08;7.20;90.30
47162;DHT22;32921;53.256;8.198;2023-04-25T13:51:34;7.60;90.70
47162;DHT22;32921;53.256;8.198;2023-04-25T13:53:59;7.80;89.20
47162;DHT22;32921;53.256;8.198;2023-04-25T13:56:26;8.60;88.30
47162;DHT22;32921;53.256;8.198;2023-04-25T13:58:51;10.70;88.30
47162;DHT22;32921;53.256;8.198;2023-04-25T14:01:17;11.60;79.20
47162;DHT22;32921;53.256;8.198;2023-04-25T14:03:44;11.00;75.00
47162;DHT22;32921;53.256;8.198;2023-04-25T14:06:09;10.00;74.40
47162;DHT22;32921;53.256;8.198;2023-04-25T14:08:36;9.10;78.50
47162;DHT22;32921;53.256;8.198;2023-04-25T14:11:02;9.10;82.60
47162;DHT22;32921;53.256;8.198;2023-04-25T14:13:28;10.40;80.10
47162;DHT22;32921;53.256;8.198;2023-04-25T14:15:54;10.20;75.90
47162;DHT22;32921;53.256;8.198;2023-04-25T14:18:20;9.40;75.80
47162;DHT22;32921;53.256;8.198;2023-04-25T14:20:45;9.00;78.60
47162;DHT22;32921;53.256;8.198;2023-04-25T14:23:11;9.00;80.40
47162;DHT22;32921;53.256;8.198;2023-04-25T14:25:37;9.20;79.20
47162;DHT22;32921;53.256;8.198;2023-04-25T14:28:03;9.60;77.50
47162;DHT22;32921;53.256;8.198;2023-04-25T14:30:29;10.40;72.60
47162;DHT22;32921;53.256;8.198;2023-04-25T14:32:54;10.10;71.60
47162;DHT22;32921;53.256;8.198;2023-04-25T14:35:20;9.70;72.10
47162;DHT22;32921;53.256;8.198;2023-04-25T14:37:46;9.20;72.10
47162;DHT22;32921;53.256;8.198;2023-04-25T14:40:13;8.80;71.20
47162;DHT22;32921;53.256;8.198;2023-04-25T14:42:40;8.50;74.30
47162;DHT22;32921;53.256;8.198;2023-04-25T14:45:07;7.90;80.70
47162;DHT22;32921;53.256;8.198;2023-04-25T14:47:36;7.50;81.40
47162;DHT22;32921;53.256;8.198;2023-04-25T14:50:02;8.40;83.00
47162;DHT22;32921;53.256;8.198;2023-04-25T14:52:29;10.50;76.80
47162;DHT22;32921;53.256;8.198;2023-04-25T14:54:54;12.40;68.40
47162;DHT22;32921;53.256;8.198;2023-04-25T14:57:20;13.70;61.40
47162;DHT22;32921;53.256;8.198;2023-04-25T14:59:46;15.40;59.40
47162;DHT22;32921;53.256;8.198;2023-04-25T15:02:11;15.10;54.10
47162;DHT22;32921;53.256;8.198;2023-04-25T15:04:37;12.50;57.30
47162;DHT22;32921;53.256;8.198;2023-04-25T15:07:03;11.80;62.10
47162;DHT22;32921;53.256;8.198;2023-04-25T15:09:29;13.10;59.70
47162;DHT22;32921;53.256;8.198;2023-04-25T15:11:55;14.60;56.40
47162;DHT22;32921;53.256;8.198;2023-04-25T15:14:21;13.80;55.70
47162;DHT22;32921;53.256;8.198;2023-04-25T15:16:46;12.30;60.10
47162;DHT22;32921;53.256;8.198;2023-04-25T15:19:12;11.20;64.30
47162;DHT22;32921;53.256;8.198;2023-04-25T15:21:37;10.20;67.70
47162;DHT22;32921;53.256;8.198;2023-04-25T15:24:03;9.40;69.80
47162;DHT22;32921;53.256;8.198;2023-04-25T15:26:29;8.80;76.10
47162;DHT22;32921;53.256;8.198;2023-04-25T15:28:54;8.30;77.50
47162;DHT22;32921;53.256;8.198;2023-04-25T15:31:20;8.10;79.30
47162;DHT22;32921;53.256;8.198;2023-04-25T15:33:46;8.00;78.20
47162;DHT22;32921;53.256;8.198;2023-04-25T15:36:12;7.90;77.90
47162;DHT22;32921;53.256;8.198;2023-04-25T15:38:37;7.80;79.50
47162;DHT22;32921;53.256;8.198;2023-04-25T15:41:03;7.80;80.00
47162;DHT22;32921;53.256;8.198;2023-04-25T15:43:29;7.40;80.60
47162;DHT22;32921;53.256;8.198;2023-04-25T15:45:55;7.20;82.00
47162;DHT22;32921;53.256;8.198;2023-04-25T15:48:21;7.80;81.40
47162;DHT22;32921;53.256;8.198;2023-04-25T15:50:46;10.00;74.60